createdAt,value
2019-05-18T00:03:38.339Z,63.02
2019-05-18T00:08:41.729Z,63.38
2019-05-18T00:13:45.126Z,63.73
2019-05-18T00:18:48.594Z,63.94
2019-05-18T00:23:52.230Z,64.09
2019-05-18T00:28:56.386Z,64.01
2019-05-18T00:33:59.777Z,64.13
2019-05-18T00:39:04.450Z,64.35
2019-05-18T00:44:07.847Z,64.34
2019-05-18T00:49:11.240Z,63.83
2019-05-18T00:54:14.737Z,63.83
2019-05-18T00:59:18.201Z,64.35
2019-05-18T01:04:21.661Z,64.65
2019-05-18T01:09:25.069Z,64.89
2019-05-18T01:14:28.685Z,65.19
2019-05-18T01:19:32.080Z,65.21
2019-05-18T01:24:35.478Z,64.09
2019-05-18T01:29:38.946Z,64.33
2019-05-18T01:34:42.368Z,64.68
2019-05-18T01:39:46.033Z,64.15
2019-05-18T01:44:49.661Z,64.15
2019-05-18T01:49:53.385Z,64.48
2019-05-18T01:54:56.783Z,64.90
2019-05-18T02:00:00.210Z,63.99
2019-05-18T02:05:04.674Z,63.41
2019-05-18T02:10:08.605Z,63.90
2019-05-18T02:15:12.331Z,64.40
2019-05-18T02:20:16.757Z,64.46
2019-05-18T02:25:21.053Z,65.17
2019-05-18T02:30:24.697Z,65.79
2019-05-18T02:35:28.093Z,66.34
2019-05-18T02:40:31.825Z,66.42
2019-05-18T02:45:35.221Z,66.53
2019-05-18T02:50:38.620Z,66.71
2019-05-18T02:55:42.014Z,66.63
2019-05-18T03:00:45.431Z,66.45
2019-05-18T03:05:48.898Z,66.68
2019-05-18T03:10:52.825Z,66.61
2019-05-18T03:15:56.218Z,66.12
2019-05-18T03:21:00.090Z,66.17
2019-05-18T03:26:03.506Z,66.15
2019-05-18T03:31:06.880Z,66.31
2019-05-18T03:36:10.373Z,66.52
2019-05-18T03:41:13.850Z,66.57
2019-05-18T03:46:17.336Z,66.68
2019-05-18T03:51:20.782Z,66.73
2019-05-18T03:56:24.125Z,66.14
2019-05-18T04:01:27.608Z,65.93
2019-05-18T04:06:31.026Z,65.75
2019-05-18T04:11:34.418Z,65.93
2019-05-18T04:16:38.149Z,66.23
2019-05-18T04:21:41.893Z,65.61
2019-05-18T04:26:45.313Z,65.81
2019-05-18T04:31:48.701Z,66.19
2019-05-18T04:36:52.132Z,66.65
2019-05-18T04:41:55.521Z,66.89
2019-05-18T04:46:59.225Z,67.43
2019-05-18T04:52:02.971Z,67.82
2019-05-18T04:57:06.596Z,68.35
2019-05-18T05:02:10.011Z,68.26
2019-05-18T05:07:13.497Z,68.23
2019-05-18T05:12:16.889Z,68.28
2019-05-18T05:17:20.357Z,68.62
2019-05-18T05:22:23.809Z,68.88
2019-05-18T05:27:27.195Z,69.25
2019-05-18T05:32:30.873Z,69.10
2019-05-18T05:37:34.318Z,69.13
2019-05-18T05:42:37.753Z,68.95
2019-05-18T05:47:41.148Z,68.95
2019-05-18T05:52:44.842Z,68.92
2019-05-18T05:57:48.230Z,69.17
2019-05-18T06:02:51.633Z,69.24
2019-05-18T06:07:55.079Z,68.74
2019-05-18T06:12:58.513Z,68.69
2019-05-18T06:18:01.900Z,68.52
2019-05-18T06:23:05.295Z,68.22
2019-05-18T06:28:08.690Z,67.93
2019-05-18T06:33:12.463Z,67.51
2019-05-18T06:38:15.849Z,67.05
2019-05-18T06:43:19.281Z,66.93
2019-05-18T06:48:22.691Z,66.91
2019-05-18T06:53:26.086Z,66.98
2019-05-18T06:58:30.221Z,65.93
2019-05-18T07:03:33.687Z,65.87
2019-05-18T07:08:37.058Z,65.69
2019-05-18T07:13:40.491Z,65.69
2019-05-18T07:18:43.883Z,64.79
2019-05-18T07:23:47.377Z,64.55
2019-05-18T07:28:50.809Z,64.86
2019-05-18T07:33:54.234Z,64.86
2019-05-18T07:38:57.630Z,64.31
2019-05-18T07:44:01.079Z,63.45
2019-05-18T07:49:04.574Z,63.48
2019-05-18T07:54:08.015Z,63.10
2019-05-18T07:59:11.439Z,62.57
2019-05-18T08:04:14.871Z,61.83
2019-05-18T08:09:18.546Z,61.35
2019-05-18T08:14:22.027Z,60.75
2019-05-18T08:19:25.440Z,61.18
2019-05-18T08:24:28.815Z,61.49
2019-05-18T08:29:32.215Z,59.73
2019-05-18T08:34:35.649Z,59.56
2019-05-18T08:39:39.066Z,60.32
2019-05-18T08:44:42.965Z,59.13
2019-05-18T08:49:46.678Z,59.00
2019-05-18T08:54:50.109Z,58.28
2019-05-18T08:59:53.502Z,58.59
2019-05-18T09:04:56.892Z,56.77
2019-05-18T09:10:00.289Z,56.83
2019-05-18T09:15:05.458Z,55.12
2019-05-18T09:20:09.517Z,56.17
2019-05-18T09:25:14.789Z,55.90
2019-05-18T09:30:18.535Z,54.17
2019-05-18T09:35:21.961Z,54.73
2019-05-18T09:40:25.353Z,53.42
2019-05-18T09:45:28.778Z,54.24
2019-05-18T09:50:32.478Z,54.67
2019-05-18T09:55:35.877Z,53.25
2019-05-18T10:00:39.347Z,52.47
2019-05-18T10:05:43.019Z,52.94
2019-05-18T10:10:46.765Z,52.45
2019-05-18T10:15:50.194Z,51.35
2019-05-18T10:20:53.879Z,50.94
2019-05-18T10:25:57.313Z,50.51
2019-05-18T10:31:01.010Z,49.30
2019-05-18T10:36:05.021Z,50.35
2019-05-18T10:41:08.583Z,49.42
2019-05-18T10:46:11.988Z,50.47
2019-05-18T10:51:15.391Z,49.36
2019-05-18T10:56:19.018Z,48.56
2019-05-18T11:01:22.417Z,48.11
2019-05-18T11:06:25.803Z,48.13
2019-05-18T11:11:29.549Z,46.11
2019-05-18T11:16:33.013Z,44.61
2019-05-18T11:21:36.433Z,46.08
2019-05-18T11:26:39.920Z,45.56
2019-05-18T11:31:43.308Z,43.27
2019-05-18T11:36:46.701Z,40.99
2019-05-18T11:41:50.104Z,41.23
2019-05-18T11:46:53.767Z,40.26
2019-05-18T11:51:57.490Z,39.85
2019-05-18T11:57:00.908Z,38.47
2019-05-18T12:02:04.550Z,39.63
2019-05-18T12:07:08.061Z,40.53
2019-05-18T12:12:11.451Z,38.83
2019-05-18T12:17:14.935Z,38.56
2019-05-18T12:22:18.311Z,39.07
2019-05-18T12:27:21.708Z,41.47
2019-05-18T12:32:25.133Z,37.36
2019-05-18T12:37:28.529Z,36.92
2019-05-18T12:42:31.920Z,39.26
2019-05-18T12:47:35.482Z,38.15
2019-05-18T12:52:38.874Z,39.02
2019-05-18T12:57:42.264Z,40.40
2019-05-18T13:02:45.690Z,39.16
2019-05-18T13:07:49.091Z,37.99
2019-05-18T13:12:52.486Z,35.41
2019-05-18T13:17:55.879Z,37.36
2019-05-18T13:22:59.376Z,39.38
2019-05-18T13:28:02.781Z,38.35
2019-05-18T13:33:06.177Z,38.22
2019-05-18T13:38:09.564Z,38.24
2019-05-18T13:43:12.965Z,37.72
2019-05-18T13:48:16.393Z,38.20
2019-05-18T13:53:19.847Z,38.29
2019-05-18T13:58:23.238Z,37.79
2019-05-18T14:03:26.629Z,36.79
2019-05-18T14:08:30.058Z,35.93
2019-05-18T14:13:33.533Z,37.87
2019-05-18T14:18:37.310Z,37.78
2019-05-18T14:23:41.014Z,37.68
2019-05-18T14:28:44.446Z,38.83
2019-05-18T14:33:47.873Z,39.22
2019-05-18T14:38:51.311Z,39.45
2019-05-18T14:43:54.744Z,39.49
2019-05-18T14:48:58.152Z,39.18
2019-05-18T14:54:01.578Z,39.63
2019-05-18T14:59:05.071Z,39.59
2019-05-18T15:04:08.461Z,38.16
2019-05-18T15:09:11.886Z,36.95
2019-05-18T15:14:15.850Z,37.60
2019-05-18T15:19:19.274Z,36.13
2019-05-18T15:24:23.008Z,35.66
2019-05-18T15:29:26.406Z,36.45
2019-05-18T15:34:29.833Z,35.22
2019-05-18T15:39:33.230Z,35.85
2019-05-18T15:44:36.968Z,34.54
2019-05-18T15:49:40.356Z,34.39
2019-05-18T15:54:43.759Z,34.54
2019-05-18T15:59:47.178Z,34.29
2019-05-18T16:04:50.689Z,34.74
2019-05-18T16:09:54.064Z,34.17
2019-05-18T16:14:57.781Z,35.11
2019-05-18T16:20:01.214Z,34.37
2019-05-18T16:25:06.649Z,33.45
2019-05-18T16:30:11.774Z,33.67
2019-05-18T16:35:15.606Z,33.41
2019-05-18T16:40:20.080Z,32.97
2019-05-18T16:45:23.474Z,32.81
2019-05-18T16:50:26.880Z,32.82
2019-05-18T16:55:30.365Z,32.99
2019-05-18T17:00:33.790Z,34.34
2019-05-18T17:05:37.256Z,34.04
2019-05-18T17:10:40.970Z,34.27
2019-05-18T17:15:45.498Z,33.89
2019-05-18T17:20:48.942Z,34.45
2019-05-18T17:25:52.352Z,34.10
2019-05-18T17:30:55.784Z,33.37
2019-05-18T17:36:00.638Z,33.66
2019-05-18T17:41:04.469Z,33.77
2019-05-18T17:46:07.927Z,34.43
2019-05-18T17:51:11.317Z,34.32
2019-05-18T17:56:14.779Z,34.89
2019-05-18T18:01:18.178Z,35.02
2019-05-18T18:06:21.601Z,35.35
2019-05-18T18:11:25.476Z,36.22
2019-05-18T18:16:29.119Z,37.78
2019-05-18T18:21:32.522Z,39.97
2019-05-18T18:26:35.988Z,41.83
2019-05-18T18:31:39.415Z,43.61
2019-05-18T18:36:42.843Z,44.20
2019-05-18T18:41:46.224Z,44.95
2019-05-18T18:46:49.621Z,45.16
2019-05-18T18:51:53.007Z,46.37
2019-05-18T18:56:56.466Z,46.31
2019-05-18T19:01:59.898Z,47.08
2019-05-18T19:07:03.295Z,47.64
2019-05-18T19:12:06.708Z,47.86
2019-05-18T19:17:10.105Z,48.28
2019-05-18T19:22:13.517Z,48.67
2019-05-18T19:27:16.901Z,48.83
2019-05-18T19:32:20.299Z,49.08
2019-05-18T19:37:26.368Z,49.59
2019-05-18T19:42:28.825Z,50.08
2019-05-18T19:47:32.255Z,50.44
2019-05-18T19:52:35.754Z,50.85
2019-05-18T19:57:39.120Z,50.83
2019-05-18T20:02:42.590Z,51.52
2019-05-18T20:07:46.007Z,52.18
2019-05-18T20:12:49.569Z,53.08
2019-05-18T20:17:53.001Z,53.21
2019-05-18T20:22:56.725Z,53.24
2019-05-18T20:28:00.123Z,53.19
2019-05-18T20:33:03.533Z,53.14
2019-05-18T20:38:06.926Z,53.58
2019-05-18T20:43:10.318Z,53.41
2019-05-18T20:48:16.807Z,53.40
2019-05-18T20:53:18.858Z,53.86
2019-05-18T20:58:22.281Z,53.72
2019-05-18T21:03:25.718Z,53.54
2019-05-18T21:08:29.126Z,53.48
2019-05-18T21:13:32.517Z,53.25
2019-05-18T21:18:36.235Z,53.74
2019-05-18T21:23:39.706Z,53.82
2019-05-18T21:28:56.207Z,53.70
2019-05-18T21:33:49.026Z,54.19
2019-05-18T21:38:52.753Z,54.49
2019-05-18T21:43:56.144Z,54.34
2019-05-18T21:48:59.551Z,54.81
2019-05-18T21:54:03.023Z,55.15
2019-05-18T21:59:11.606Z,55.38
2019-05-18T22:04:11.661Z,55.68
2019-05-18T22:09:15.053Z,55.70
2019-05-18T22:14:18.817Z,55.69
2019-05-18T22:19:22.630Z,56.21
2019-05-18T22:24:26.340Z,56.96
2019-05-18T22:29:29.736Z,57.24
2019-05-18T22:34:33.194Z,57.45
2019-05-18T22:39:37.752Z,57.59
2019-05-18T22:44:41.164Z,57.29
2019-05-18T22:49:44.611Z,56.85
2019-05-18T22:54:47.983Z,56.97
2019-05-18T22:59:51.366Z,57.58
2019-05-18T23:04:54.812Z,57.98
2019-05-18T23:09:58.528Z,58.64
2019-05-18T23:15:01.949Z,59.13
2019-05-18T23:20:06.376Z,59.41
2019-05-18T23:25:10.213Z,59.34
2019-05-18T23:30:13.936Z,59.07
2019-05-18T23:35:17.417Z,58.32
2019-05-18T23:40:20.889Z,58.28
2019-05-18T23:45:24.462Z,58.45
2019-05-18T23:50:27.892Z,59.05
2019-05-18T23:55:31.353Z,59.33
